Airfield :
LOGIN :

Register | Disclaimer

   EN    FR    IT 

 










Legend :    VFR   Marginal VFR   IFR   Intensive IFR   Very Intensive IFR
Visi :
Ceiling :
>= 8 km
>= 3000ft
5 to 8 km
1000 to 3000 ft
1500m to 5 km
500 to 1000 ft
800 to 1500m
200 to 500 ft
< 800m
< 200 ft
Symbols :   Thunderstorms  Fog  Heavy snow  Heavy precipitations  Wind > 20 kt
SIGMETs :     Misc.  Thunderstorms  Icing  Turbulence  Mountain Waves  Volcanic Ashes






- Airport Elevation : 23 ft
- IATA code : XFW


EDHI - Hamburg Finkenwerder

CURRENT METAR :
  • 090720Z AUTO 05004KT 020V090 9999 // SCT250/// 26/17 Q1020

EXPIRED METARs :
  • 090650Z AUTO 06005KT 9999 // FEW210/// 25/16 Q1020
  • 090620Z AUTO 06005KT 9999 // FEW170/// 24/16 Q1020
  • 090550Z AUTO 06004KT 9999 // BKN170/// 23/15 Q1020
  • 090520Z AUTO 05004KT 9999 // BKN170/// 22/15 Q1020
  • 090450Z AUTO 06004KT 9999 // OVC180/// 22/15 Q1019

Expired Forecast.



MET'MAP, your aeronautical weather chart ! - Copyright ORBIFLY December 2007 - Disclaimer

ORBIFLY MET'MAP TEAM :

Programming & Development : Alexandra Zaïnal
Concept & original design : Baudouin d'Aumeries
Assistance for programming : Marc-Olivier Méhu
Technical & hardware support : Manuel Goepfert

Contact : metmap@orbifly.com




SOURCES & CREDITS :

   NOAA